sensor_id;sensor_type;location;lat;lon;timestamp;P1;durP1;ratioP1;P2;durP2;ratioP2
71513;SDS011;59335;46.652;21.272;2023-03-01T00:00:46;9.70;;;7.13;;
71513;SDS011;59335;46.652;21.272;2023-03-01T00:03:49;10.63;;;7.13;;
71513;SDS011;59335;46.652;21.272;2023-03-01T00:06:52;10.07;;;6.60;;
71513;SDS011;59335;46.652;21.272;2023-03-01T00:09:54;11.65;;;7.63;;
71513;SDS011;59335;46.652;21.272;2023-03-01T00:12:57;10.25;;;7.07;;
71513;SDS011;59335;46.652;21.272;2023-03-01T00:16:07;11.07;;;6.68;;
71513;SDS011;59335;46.652;21.272;2023-03-01T00:19:14;10.37;;;6.83;;
71513;SDS011;59335;46.652;21.272;2023-03-01T00:22:18;11.75;;;7.35;;
71513;SDS011;59335;46.652;21.272;2023-03-01T00:25:21;11.23;;;7.45;;
71513;SDS011;59335;46.652;21.272;2023-03-01T00:28:24;10.00;;;6.97;;
71513;SDS011;59335;46.652;21.272;2023-03-01T00:31:27;10.18;;;7.13;;
71513;SDS011;59335;46.652;21.272;2023-03-01T00:34:32;10.20;;;6.93;;
71513;SDS011;59335;46.652;21.272;2023-03-01T00:37:35;10.73;;;7.13;;
71513;SDS011;59335;46.652;21.272;2023-03-01T00:40:39;10.00;;;6.65;;
71513;SDS011;59335;46.652;21.272;2023-03-01T00:43:42;10.18;;;6.95;;
71513;SDS011;59335;46.652;21.272;2023-03-01T00:46:46;11.50;;;6.90;;
71513;SDS011;59335;46.652;21.272;2023-03-01T00:49:48;10.63;;;6.73;;
71513;SDS011;59335;46.652;21.272;2023-03-01T00:52:54;10.07;;;6.90;;
71513;SDS011;59335;46.652;21.272;2023-03-01T00:55:58;11.55;;;8.02;;
71513;SDS011;59335;46.652;21.272;2023-03-01T00:59:00;11.65;;;7.40;;
71513;SDS011;59335;46.652;21.272;2023-03-01T01:02:03;10.43;;;6.75;;
71513;SDS011;59335;46.652;21.272;2023-03-01T01:05:06;10.53;;;7.37;;
71513;SDS011;59335;46.652;21.272;2023-03-01T01:08:09;10.95;;;7.13;;
71513;SDS011;59335;46.652;21.272;2023-03-01T01:11:12;10.18;;;6.70;;
71513;SDS011;59335;46.652;21.272;2023-03-01T01:14:16;10.18;;;6.50;;
71513;SDS011;59335;46.652;21.272;2023-03-01T01:17:19;10.80;;;7.18;;
71513;SDS011;59335;46.652;21.272;2023-03-01T01:20:23;9.70;;;7.00;;
71513;SDS011;59335;46.652;21.272;2023-03-01T01:23:25;10.00;;;6.70;;
71513;SDS011;59335;46.652;21.272;2023-03-01T01:26:29;9.55;;;6.32;;
71513;SDS011;59335;46.652;21.272;2023-03-01T01:29:33;10.13;;;6.82;;
71513;SDS011;59335;46.652;21.272;2023-03-01T01:32:36;10.65;;;6.60;;
71513;SDS011;59335;46.652;21.272;2023-03-01T01:35:38;10.23;;;7.13;;
71513;SDS011;59335;46.652;21.272;2023-03-01T01:38:43;9.95;;;6.88;;
71513;SDS011;59335;46.652;21.272;2023-03-01T01:41:46;10.20;;;6.43;;
71513;SDS011;59335;46.652;21.272;2023-03-01T01:45:15;10.45;;;7.07;;
71513;SDS011;59335;46.652;21.272;2023-03-01T01:51:56;9.33;;;6.33;;
71513;SDS011;59335;46.652;21.272;2023-03-01T01:58:17;10.63;;;6.97;;
71513;SDS011;59335;46.652;21.272;2023-03-01T02:01:24;10.27;;;6.97;;
71513;SDS011;59335;46.652;21.272;2023-03-01T02:04:27;10.77;;;7.13;;
71513;SDS011;59335;46.652;21.272;2023-03-01T02:07:31;10.47;;;6.63;;
71513;SDS011;59335;46.652;21.272;2023-03-01T02:10:35;10.75;;;6.85;;
71513;SDS011;59335;46.652;21.272;2023-03-01T02:13:38;10.13;;;6.80;;
71513;SDS011;59335;46.652;21.272;2023-03-01T02:16:40;10.90;;;6.80;;
71513;SDS011;59335;46.652;21.272;2023-03-01T02:22:52;10.03;;;6.73;;
71513;SDS011;59335;46.652;21.272;2023-03-01T02:25:58;10.80;;;7.30;;
71513;SDS011;59335;46.652;21.272;2023-03-01T02:29:08;12.25;;;7.35;;
71513;SDS011;59335;46.652;21.272;2023-03-01T02:32:11;10.77;;;6.88;;
71513;SDS011;59335;46.652;21.272;2023-03-01T02:35:16;10.88;;;7.40;;
71513;SDS011;59335;46.652;21.272;2023-03-01T02:38:21;11.37;;;7.43;;
71513;SDS011;59335;46.652;21.272;2023-03-01T02:41:24;11.25;;;7.03;;
71513;SDS011;59335;46.652;21.272;2023-03-01T02:44:30;11.48;;;7.72;;
71513;SDS011;59335;46.652;21.272;2023-03-01T02:47:33;13.13;;;8.10;;
71513;SDS011;59335;46.652;21.272;2023-03-01T02:57:22;12.70;;;8.23;;
71513;SDS011;59335;46.652;21.272;2023-03-01T03:00:28;12.30;;;8.80;;
71513;SDS011;59335;46.652;21.272;2023-03-01T03:03:36;13.32;;;9.05;;
71513;SDS011;59335;46.652;21.272;2023-03-01T03:06:39;14.70;;;10.25;;
71513;SDS011;59335;46.652;21.272;2023-03-01T03:09:44;13.60;;;9.57;;
71513;SDS011;59335;46.652;21.272;2023-03-01T03:12:54;13.65;;;8.88;;
71513;SDS011;59335;46.652;21.272;2023-03-01T03:16:05;14.00;;;9.18;;
71513;SDS011;59335;46.652;21.272;2023-03-01T03:19:08;12.70;;;8.52;;
71513;SDS011;59335;46.652;21.272;2023-03-01T03:22:11;14.45;;;9.35;;
71513;SDS011;59335;46.652;21.272;2023-03-01T03:25:15;13.80;;;8.53;;
71513;SDS011;59335;46.652;21.272;2023-03-01T03:28:19;13.80;;;8.90;;
71513;SDS011;59335;46.652;21.272;2023-03-01T03:31:21;12.82;;;8.60;;
71513;SDS011;59335;46.652;21.272;2023-03-01T03:34:24;14.18;;;9.23;;
71513;SDS011;59335;46.652;21.272;2023-03-01T03:37:27;12.63;;;8.80;;
71513;SDS011;59335;46.652;21.272;2023-03-01T03:40:49;13.23;;;8.83;;
71513;SDS011;59335;46.652;21.272;2023-03-01T03:43:54;14.05;;;8.82;;
71513;SDS011;59335;46.652;21.272;2023-03-01T03:46:57;15.05;;;9.05;;
71513;SDS011;59335;46.652;21.272;2023-03-01T03:50:00;13.73;;;8.73;;
71513;SDS011;59335;46.652;21.272;2023-03-01T03:53:04;12.77;;;8.57;;
71513;SDS011;59335;46.652;21.272;2023-03-01T03:56:12;12.93;;;8.70;;
71513;SDS011;59335;46.652;21.272;2023-03-01T03:59:15;14.25;;;9.13;;
71513;SDS011;59335;46.652;21.272;2023-03-01T04:02:18;14.20;;;8.52;;
71513;SDS011;59335;46.652;21.272;2023-03-01T04:05:24;12.90;;;8.38;;
71513;SDS011;59335;46.652;21.272;2023-03-01T04:08:27;13.65;;;8.73;;
71513;SDS011;59335;46.652;21.272;2023-03-01T04:11:30;13.07;;;8.47;;
71513;SDS011;59335;46.652;21.272;2023-03-01T04:14:33;11.85;;;8.20;;
71513;SDS011;59335;46.652;21.272;2023-03-01T04:17:44;13.65;;;8.82;;
71513;SDS011;59335;46.652;21.272;2023-03-01T04:20:48;12.05;;;8.27;;
71513;SDS011;59335;46.652;21.272;2023-03-01T04:23:54;13.60;;;8.48;;
71513;SDS011;59335;46.652;21.272;2023-03-01T04:26:57;11.83;;;7.93;;
71513;SDS011;59335;46.652;21.272;2023-03-01T04:30:00;12.25;;;7.95;;
71513;SDS011;59335;46.652;21.272;2023-03-01T04:33:05;13.55;;;8.45;;
71513;SDS011;59335;46.652;21.272;2023-03-01T04:36:09;13.13;;;8.48;;
71513;SDS011;59335;46.652;21.272;2023-03-01T04:39:13;12.07;;;8.57;;
71513;SDS011;59335;46.652;21.272;2023-03-01T04:42:16;13.33;;;8.80;;
71513;SDS011;59335;46.652;21.272;2023-03-01T04:45:19;14.13;;;8.85;;
71513;SDS011;59335;46.652;21.272;2023-03-01T04:48:22;12.88;;;8.50;;
71513;SDS011;59335;46.652;21.272;2023-03-01T04:51:25;13.32;;;8.98;;
71513;SDS011;59335;46.652;21.272;2023-03-01T04:54:28;13.93;;;9.07;;
71513;SDS011;59335;46.652;21.272;2023-03-01T04:57:32;14.17;;;9.17;;
71513;SDS011;59335;46.652;21.272;2023-03-01T05:00:35;15.73;;;10.00;;
71513;SDS011;59335;46.652;21.272;2023-03-01T05:03:38;14.80;;;9.50;;
71513;SDS011;59335;46.652;21.272;2023-03-01T05:06:40;13.32;;;9.30;;
71513;SDS011;59335;46.652;21.272;2023-03-01T05:09:43;15.68;;;9.90;;
71513;SDS011;59335;46.652;21.272;2023-03-01T05:12:46;13.87;;;9.50;;
71513;SDS011;59335;46.652;21.272;2023-03-01T05:15:53;15.25;;;10.13;;
71513;SDS011;59335;46.652;21.272;2023-03-01T05:18:57;15.18;;;9.65;;
71513;SDS011;59335;46.652;21.272;2023-03-01T05:22:00;14.00;;;9.13;;
71513;SDS011;59335;46.652;21.272;2023-03-01T05:25:06;13.65;;;9.30;;
71513;SDS011;59335;46.652;21.272;2023-03-01T05:28:12;14.40;;;9.50;;
71513;SDS011;59335;46.652;21.272;2023-03-01T05:31:18;15.50;;;9.05;;
71513;SDS011;59335;46.652;21.272;2023-03-01T05:37:32;14.27;;;9.27;;
71513;SDS011;59335;46.652;21.272;2023-03-01T05:40:35;14.50;;;9.48;;
71513;SDS011;59335;46.652;21.272;2023-03-01T05:43:38;15.40;;;9.93;;
71513;SDS011;59335;46.652;21.272;2023-03-01T05:46:44;14.90;;;9.57;;
71513;SDS011;59335;46.652;21.272;2023-03-01T05:49:47;15.00;;;9.32;;
71513;SDS011;59335;46.652;21.272;2023-03-01T05:52:51;14.23;;;9.35;;
71513;SDS011;59335;46.652;21.272;2023-03-01T05:55:54;14.93;;;10.15;;
71513;SDS011;59335;46.652;21.272;2023-03-01T05:58:58;14.27;;;10.23;;
71513;SDS011;59335;46.652;21.272;2023-03-01T06:02:00;15.82;;;10.43;;
71513;SDS011;59335;46.652;21.272;2023-03-01T06:05:04;16.02;;;10.32;;
71513;SDS011;59335;46.652;21.272;2023-03-01T06:08:09;15.98;;;10.20;;
71513;SDS011;59335;46.652;21.272;2023-03-01T06:11:12;15.52;;;10.40;;
71513;SDS011;59335;46.652;21.272;2023-03-01T06:14:15;14.37;;;9.40;;
71513;SDS011;59335;46.652;21.272;2023-03-01T06:17:18;15.25;;;9.95;;
71513;SDS011;59335;46.652;21.272;2023-03-01T06:20:21;16.17;;;10.02;;
71513;SDS011;59335;46.652;21.272;2023-03-01T06:23:25;14.40;;;9.77;;
71513;SDS011;59335;46.652;21.272;2023-03-01T06:26:28;15.20;;;9.90;;
71513;SDS011;59335;46.652;21.272;2023-03-01T06:29:30;17.30;;;8.77;;
71513;SDS011;59335;46.652;21.272;2023-03-01T06:32:34;17.77;;;9.95;;
71513;SDS011;59335;46.652;21.272;2023-03-01T06:35:37;16.50;;;10.18;;
71513;SDS011;59335;46.652;21.272;2023-03-01T06:38:40;16.33;;;9.20;;
71513;SDS011;59335;46.652;21.272;2023-03-01T06:41:43;14.43;;;9.02;;
71513;SDS011;59335;46.652;21.272;2023-03-01T06:44:47;15.73;;;8.63;;
71513;SDS011;59335;46.652;21.272;2023-03-01T06:47:50;13.43;;;9.13;;
71513;SDS011;59335;46.652;21.272;2023-03-01T06:50:53;14.60;;;9.00;;
71513;SDS011;59335;46.652;21.272;2023-03-01T06:53:56;15.45;;;9.45;;
71513;SDS011;59335;46.652;21.272;2023-03-01T06:57:02;13.90;;;9.13;;
71513;SDS011;59335;46.652;21.272;2023-03-01T07:00:05;16.17;;;8.90;;
71513;SDS011;59335;46.652;21.272;2023-03-01T07:03:09;14.00;;;8.68;;
71513;SDS011;59335;46.652;21.272;2023-03-01T07:06:15;13.85;;;8.98;;
71513;SDS011;59335;46.652;21.272;2023-03-01T07:09:17;15.38;;;8.90;;
71513;SDS011;59335;46.652;21.272;2023-03-01T07:12:21;13.93;;;9.82;;
71513;SDS011;59335;46.652;21.272;2023-03-01T07:15:27;14.93;;;8.83;;
71513;SDS011;59335;46.652;21.272;2023-03-01T07:18:30;13.50;;;8.70;;
71513;SDS011;59335;46.652;21.272;2023-03-01T07:21:33;15.65;;;8.75;;
71513;SDS011;59335;46.652;21.272;2023-03-01T07:24:36;14.70;;;9.15;;
71513;SDS011;59335;46.652;21.272;2023-03-01T07:27:39;14.55;;;9.02;;
71513;SDS011;59335;46.652;21.272;2023-03-01T07:30:43;14.17;;;8.97;;
71513;SDS011;59335;46.652;21.272;2023-03-01T07:33:47;13.25;;;8.27;;
71513;SDS011;59335;46.652;21.272;2023-03-01T07:36:49;15.18;;;8.98;;
71513;SDS011;59335;46.652;21.272;2023-03-01T07:39:52;13.13;;;8.60;;
71513;SDS011;59335;46.652;21.272;2023-03-01T07:42:56;13.52;;;9.20;;
71513;SDS011;59335;46.652;21.272;2023-03-01T07:46:00;15.27;;;8.73;;
71513;SDS011;59335;46.652;21.272;2023-03-01T07:49:04;15.05;;;8.85;;
71513;SDS011;59335;46.652;21.272;2023-03-01T08:10:10;13.82;;;8.13;;
71513;SDS011;59335;46.652;21.272;2023-03-01T08:13:14;13.80;;;8.88;;
71513;SDS011;59335;46.652;21.272;2023-03-01T08:16:17;14.70;;;8.80;;
71513;SDS011;59335;46.652;21.272;2023-03-01T08:19:21;15.40;;;8.68;;
71513;SDS011;59335;46.652;21.272;2023-03-01T08:22:25;14.63;;;8.97;;
71513;SDS011;59335;46.652;21.272;2023-03-01T08:30:07;14.63;;;8.88;;
71513;SDS011;59335;46.652;21.272;2023-03-01T08:33:11;13.10;;;9.13;;
71513;SDS011;59335;46.652;21.272;2023-03-01T08:41:01;15.07;;;8.87;;
71513;SDS011;59335;46.652;21.272;2023-03-01T08:44:06;18.17;;;9.35;;
71513;SDS011;59335;46.652;21.272;2023-03-01T08:47:09;15.07;;;8.68;;
71513;SDS011;59335;46.652;21.272;2023-03-01T08:50:14;15.50;;;9.18;;
71513;SDS011;59335;46.652;21.272;2023-03-01T08:53:18;13.90;;;9.32;;
71513;SDS011;59335;46.652;21.272;2023-03-01T08:56:21;16.47;;;8.93;;
71513;SDS011;59335;46.652;21.272;2023-03-01T10:07:13;17.58;;;8.25;;
71513;SDS011;59335;46.652;21.272;2023-03-01T10:10:34;15.98;;;8.50;;
71513;SDS011;59335;46.652;21.272;2023-03-01T10:13:51;14.82;;;8.82;;
71513;SDS011;59335;46.652;21.272;2023-03-01T10:20:23;14.77;;;7.68;;
71513;SDS011;59335;46.652;21.272;2023-03-01T10:23:42;13.05;;;8.00;;
71513;SDS011;59335;46.652;21.272;2023-03-01T10:26:55;16.48;;;8.65;;
71513;SDS011;59335;46.652;21.272;2023-03-01T10:33:16;14.93;;;8.20;;
71513;SDS011;59335;46.652;21.272;2023-03-01T10:36:23;16.05;;;7.70;;
71513;SDS011;59335;46.652;21.272;2023-03-01T10:39:27;16.50;;;8.38;;
71513;SDS011;59335;46.652;21.272;2023-03-01T10:42:32;13.32;;;7.70;;
71513;SDS011;59335;46.652;21.272;2023-03-01T10:45:39;16.17;;;8.18;;
71513;SDS011;59335;46.652;21.272;2023-03-01T10:48:43;14.93;;;7.83;;
71513;SDS011;59335;46.652;21.272;2023-03-01T10:51:47;16.98;;;8.20;;
71513;SDS011;59335;46.652;21.272;2023-03-01T10:54:53;15.82;;;7.93;;
71513;SDS011;59335;46.652;21.272;2023-03-01T10:58:06;17.00;;;8.13;;
71513;SDS011;59335;46.652;21.272;2023-03-01T11:04:30;15.83;;;8.33;;
71513;SDS011;59335;46.652;21.272;2023-03-01T11:07:37;15.68;;;8.90;;
71513;SDS011;59335;46.652;21.272;2023-03-01T11:10:51;15.02;;;8.20;;
71513;SDS011;59335;46.652;21.272;2023-03-01T11:14:16;15.18;;;8.23;;
71513;SDS011;59335;46.652;21.272;2023-03-01T11:17:28;17.23;;;8.40;;
71513;SDS011;59335;46.652;21.272;2023-03-01T11:20:48;16.27;;;7.83;;
71513;SDS011;59335;46.652;21.272;2023-03-01T11:23:55;15.20;;;8.32;;
71513;SDS011;59335;46.652;21.272;2023-03-01T11:27:02;15.07;;;8.40;;
71513;SDS011;59335;46.652;21.272;2023-03-01T11:30:09;14.95;;;7.65;;
71513;SDS011;59335;46.652;21.272;2023-03-01T11:33:35;15.63;;;8.02;;
71513;SDS011;59335;46.652;21.272;2023-03-01T11:36:48;15.33;;;7.93;;
71513;SDS011;59335;46.652;21.272;2023-03-01T11:39:58;17.77;;;7.72;;
71513;SDS011;59335;46.652;21.272;2023-03-01T11:43:24;13.23;;;7.60;;
71513;SDS011;59335;46.652;21.272;2023-03-01T11:56:47;20.73;;;7.85;;
71513;SDS011;59335;46.652;21.272;2023-03-01T12:03:31;16.52;;;7.32;;
71513;SDS011;59335;46.652;21.272;2023-03-01T12:07:06;14.30;;;7.35;;
71513;SDS011;59335;46.652;21.272;2023-03-01T12:10:23;15.53;;;7.90;;
71513;SDS011;59335;46.652;21.272;2023-03-01T12:13:50;16.77;;;9.25;;
71513;SDS011;59335;46.652;21.272;2023-03-01T12:24:15;15.52;;;8.00;;
71513;SDS011;59335;46.652;21.272;2023-03-01T12:37:36;14.10;;;7.70;;
71513;SDS011;59335;46.652;21.272;2023-03-01T12:50:50;17.25;;;7.65;;
71513;SDS011;59335;46.652;21.272;2023-03-01T12:53:55;16.25;;;7.78;;
71513;SDS011;59335;46.652;21.272;2023-03-01T12:57:11;17.50;;;7.82;;
71513;SDS011;59335;46.652;21.272;2023-03-01T13:00:32;16.20;;;7.53;;
71513;SDS011;59335;46.652;21.272;2023-03-01T13:07:16;18.73;;;8.00;;
71513;SDS011;59335;46.652;21.272;2023-03-01T13:17:29;20.17;;;7.50;;
71513;SDS011;59335;46.652;21.272;2023-03-01T13:20:45;18.15;;;7.63;;
71513;SDS011;59335;46.652;21.272;2023-03-01T13:23:49;17.77;;;7.68;;
71513;SDS011;59335;46.652;21.272;2023-03-01T13:33:53;17.23;;;7.27;;
71513;SDS011;59335;46.652;21.272;2023-03-01T13:37:08;14.05;;;7.32;;
71513;SDS011;59335;46.652;21.272;2023-03-01T13:43:34;14.90;;;7.53;;
71513;SDS011;59335;46.652;21.272;2023-03-01T13:46:39;16.40;;;7.72;;
71513;SDS011;59335;46.652;21.272;2023-03-01T13:49:56;14.47;;;6.70;;
71513;SDS011;59335;46.652;21.272;2023-03-01T13:53:05;15.27;;;7.25;;
71513;SDS011;59335;46.652;21.272;2023-03-01T13:56:11;17.20;;;7.68;;
71513;SDS011;59335;46.652;21.272;2023-03-01T13:59:21;14.02;;;7.57;;
71513;SDS011;59335;46.652;21.272;2023-03-01T14:02:24;17.05;;;7.13;;
71513;SDS011;59335;46.652;21.272;2023-03-01T14:05:27;15.27;;;6.93;;
71513;SDS011;59335;46.652;21.272;2023-03-01T14:08:31;14.50;;;7.05;;
71513;SDS011;59335;46.652;21.272;2023-03-01T14:18:26;16.58;;;7.20;;
71513;SDS011;59335;46.652;21.272;2023-03-01T14:21:40;18.43;;;7.13;;
71513;SDS011;59335;46.652;21.272;2023-03-01T14:24:52;18.40;;;6.57;;
71513;SDS011;59335;46.652;21.272;2023-03-01T14:31:38;15.77;;;7.05;;
71513;SDS011;59335;46.652;21.272;2023-03-01T14:34:55;12.77;;;6.75;;
71513;SDS011;59335;46.652;21.272;2023-03-01T14:38:02;14.83;;;6.40;;
71513;SDS011;59335;46.652;21.272;2023-03-01T14:41:15;14.43;;;6.35;;
71513;SDS011;59335;46.652;21.272;2023-03-01T14:44:23;20.65;;;6.57;;
71513;SDS011;59335;46.652;21.272;2023-03-01T14:47:29;18.48;;;6.72;;
71513;SDS011;59335;46.652;21.272;2023-03-01T14:50:35;14.68;;;6.82;;
71513;SDS011;59335;46.652;21.272;2023-03-01T14:53:43;15.37;;;6.97;;
71513;SDS011;59335;46.652;21.272;2023-03-01T14:56:53;17.58;;;7.00;;
71513;SDS011;59335;46.652;21.272;2023-03-01T15:00:01;22.75;;;7.00;;
71513;SDS011;59335;46.652;21.272;2023-03-01T15:03:10;17.42;;;7.03;;
71513;SDS011;59335;46.652;21.272;2023-03-01T15:06:17;13.57;;;6.80;;
71513;SDS011;59335;46.652;21.272;2023-03-01T15:09:22;23.13;;;6.50;;
71513;SDS011;59335;46.652;21.272;2023-03-01T15:15:32;13.38;;;6.63;;
71513;SDS011;59335;46.652;21.272;2023-03-01T15:18:46;18.05;;;6.85;;
71513;SDS011;59335;46.652;21.272;2023-03-01T15:21:52;12.45;;;6.25;;
71513;SDS011;59335;46.652;21.272;2023-03-01T15:24:55;16.50;;;6.33;;
71513;SDS011;59335;46.652;21.272;2023-03-01T15:27:59;13.90;;;6.35;;
71513;SDS011;59335;46.652;21.272;2023-03-01T15:31:12;12.90;;;6.47;;
71513;SDS011;59335;46.652;21.272;2023-03-01T15:34:28;16.08;;;6.85;;
71513;SDS011;59335;46.652;21.272;2023-03-01T15:40:48;11.50;;;5.47;;
71513;SDS011;59335;46.652;21.272;2023-03-01T15:43:52;14.40;;;6.32;;
71513;SDS011;59335;46.652;21.272;2023-03-01T15:46:59;12.90;;;6.18;;
71513;SDS011;59335;46.652;21.272;2023-03-01T15:50:02;14.40;;;5.85;;
71513;SDS011;59335;46.652;21.272;2023-03-01T15:53:06;12.15;;;6.13;;
71513;SDS011;59335;46.652;21.272;2023-03-01T15:56:13;13.27;;;5.73;;
71513;SDS011;59335;46.652;21.272;2023-03-01T15:59:16;12.52;;;5.93;;
71513;SDS011;59335;46.652;21.272;2023-03-01T16:02:20;14.10;;;6.00;;
71513;SDS011;59335;46.652;21.272;2023-03-01T16:05:26;15.68;;;5.70;;
71513;SDS011;59335;46.652;21.272;2023-03-01T16:08:31;13.65;;;5.90;;
71513;SDS011;59335;46.652;21.272;2023-03-01T16:11:35;11.27;;;5.63;;
71513;SDS011;59335;46.652;21.272;2023-03-01T16:14:39;10.98;;;5.50;;
71513;SDS011;59335;46.652;21.272;2023-03-01T16:17:42;12.93;;;6.65;;
71513;SDS011;59335;46.652;21.272;2023-03-01T16:20:48;13.23;;;5.97;;
71513;SDS011;59335;46.652;21.272;2023-03-01T16:23:51;13.45;;;5.60;;
71513;SDS011;59335;46.652;21.272;2023-03-01T16:26:55;15.33;;;6.13;;
71513;SDS011;59335;46.652;21.272;2023-03-01T16:29:58;14.52;;;5.32;;
71513;SDS011;59335;46.652;21.272;2023-03-01T16:33:01;11.75;;;5.97;;
71513;SDS011;59335;46.652;21.272;2023-03-01T16:36:11;10.27;;;5.78;;
71513;SDS011;59335;46.652;21.272;2023-03-01T16:39:16;11.68;;;5.45;;
71513;SDS011;59335;46.652;21.272;2023-03-01T16:42:19;23.73;;;5.80;;
71513;SDS011;59335;46.652;21.272;2023-03-01T16:45:22;27.30;;;6.78;;
71513;SDS011;59335;46.652;21.272;2023-03-01T16:48:26;19.85;;;5.93;;
71513;SDS011;59335;46.652;21.272;2023-03-01T16:51:29;16.83;;;5.65;;
71513;SDS011;59335;46.652;21.272;2023-03-01T16:54:34;22.88;;;6.50;;
71513;SDS011;59335;46.652;21.272;2023-03-01T16:57:38;18.83;;;5.97;;
71513;SDS011;59335;46.652;21.272;2023-03-01T17:00:43;13.07;;;5.70;;
71513;SDS011;59335;46.652;21.272;2023-03-01T17:03:50;12.43;;;5.57;;
71513;SDS011;59335;46.652;21.272;2023-03-01T17:06:54;14.40;;;5.30;;
71513;SDS011;59335;46.652;21.272;2023-03-01T17:09:57;14.80;;;5.75;;
71513;SDS011;59335;46.652;21.272;2023-03-01T17:13:01;16.90;;;5.30;;
71513;SDS011;59335;46.652;21.272;2023-03-01T17:16:05;14.02;;;5.75;;
71513;SDS011;59335;46.652;21.272;2023-03-01T17:19:10;15.50;;;5.40;;
71513;SDS011;59335;46.652;21.272;2023-03-01T17:22:15;17.08;;;5.93;;
71513;SDS011;59335;46.652;21.272;2023-03-01T17:25:18;16.25;;;5.70;;
71513;SDS011;59335;46.652;21.272;2023-03-01T17:28:24;14.43;;;5.57;;
71513;SDS011;59335;46.652;21.272;2023-03-01T17:31:30;16.02;;;5.53;;
71513;SDS011;59335;46.652;21.272;2023-03-01T17:34:35;15.05;;;5.43;;
71513;SDS011;59335;46.652;21.272;2023-03-01T17:37:39;18.00;;;5.45;;
71513;SDS011;59335;46.652;21.272;2023-03-01T17:40:48;13.23;;;5.78;;
71513;SDS011;59335;46.652;21.272;2023-03-01T17:43:52;14.47;;;5.47;;
71513;SDS011;59335;46.652;21.272;2023-03-01T17:46:56;15.93;;;5.63;;
71513;SDS011;59335;46.652;21.272;2023-03-01T17:49:59;14.00;;;5.85;;
71513;SDS011;59335;46.652;21.272;2023-03-01T17:53:03;15.73;;;5.25;;
71513;SDS011;59335;46.652;21.272;2023-03-01T17:56:11;11.18;;;5.47;;
71513;SDS011;59335;46.652;21.272;2023-03-01T17:59:15;14.33;;;5.40;;
71513;SDS011;59335;46.652;21.272;2023-03-01T18:02:21;13.07;;;5.68;;
71513;SDS011;59335;46.652;21.272;2023-03-01T18:05:30;16.98;;;5.35;;
71513;SDS011;59335;46.652;21.272;2023-03-01T18:08:36;13.98;;;5.47;;
71513;SDS011;59335;46.652;21.272;2023-03-01T18:11:39;12.73;;;5.10;;
71513;SDS011;59335;46.652;21.272;2023-03-01T18:14:43;13.87;;;5.30;;
71513;SDS011;59335;46.652;21.272;2023-03-01T18:17:46;12.52;;;5.60;;
71513;SDS011;59335;46.652;21.272;2023-03-01T18:20:56;11.05;;;5.28;;
71513;SDS011;59335;46.652;21.272;2023-03-01T18:24:02;14.90;;;5.18;;
71513;SDS011;59335;46.652;21.272;2023-03-01T18:27:06;14.38;;;5.22;;
71513;SDS011;59335;46.652;21.272;2023-03-01T18:30:12;11.90;;;5.23;;
71513;SDS011;59335;46.652;21.272;2023-03-01T18:33:16;10.32;;;5.10;;
71513;SDS011;59335;46.652;21.272;2023-03-01T18:36:21;11.80;;;5.43;;
71513;SDS011;59335;46.652;21.272;2023-03-01T18:39:30;10.73;;;5.25;;
71513;SDS011;59335;46.652;21.272;2023-03-01T18:42:33;12.02;;;5.47;;
71513;SDS011;59335;46.652;21.272;2023-03-01T18:45:39;14.27;;;5.60;;
71513;SDS011;59335;46.652;21.272;2023-03-01T18:48:46;11.55;;;5.63;;
71513;SDS011;59335;46.652;21.272;2023-03-01T18:51:52;9.27;;;5.18;;
71513;SDS011;59335;46.652;21.272;2023-03-01T18:54:58;12.73;;;5.63;;
71513;SDS011;59335;46.652;21.272;2023-03-01T18:58:03;11.57;;;5.97;;
71513;SDS011;59335;46.652;21.272;2023-03-01T19:01:12;11.53;;;5.50;;
71513;SDS011;59335;46.652;21.272;2023-03-01T19:04:18;10.65;;;5.28;;
71513;SDS011;59335;46.652;21.272;2023-03-01T19:07:21;12.00;;;5.60;;
71513;SDS011;59335;46.652;21.272;2023-03-01T19:10:25;12.40;;;5.15;;
71513;SDS011;59335;46.652;21.272;2023-03-01T19:13:30;12.73;;;5.30;;
71513;SDS011;59335;46.652;21.272;2023-03-01T19:16:34;12.80;;;5.10;;
71513;SDS011;59335;46.652;21.272;2023-03-01T19:19:37;9.77;;;5.00;;
71513;SDS011;59335;46.652;21.272;2023-03-01T19:22:41;10.45;;;5.25;;
71513;SDS011;59335;46.652;21.272;2023-03-01T19:25:45;11.15;;;5.30;;
71513;SDS011;59335;46.652;21.272;2023-03-01T19:28:50;10.82;;;5.32;;
71513;SDS011;59335;46.652;21.272;2023-03-01T19:31:54;11.93;;;4.97;;
71513;SDS011;59335;46.652;21.272;2023-03-01T19:34:58;12.95;;;5.22;;
71513;SDS011;59335;46.652;21.272;2023-03-01T19:38:01;9.68;;;5.45;;
71513;SDS011;59335;46.652;21.272;2023-03-01T19:41:08;13.07;;;5.35;;
71513;SDS011;59335;46.652;21.272;2023-03-01T19:44:19;11.70;;;5.40;;
71513;SDS011;59335;46.652;21.272;2023-03-01T19:47:29;9.17;;;4.90;;
71513;SDS011;59335;46.652;21.272;2023-03-01T19:50:35;9.75;;;4.75;;
71513;SDS011;59335;46.652;21.272;2023-03-01T19:53:40;10.80;;;5.22;;
71513;SDS011;59335;46.652;21.272;2023-03-01T19:56:46;12.48;;;5.18;;
71513;SDS011;59335;46.652;21.272;2023-03-01T19:59:52;10.35;;;4.90;;
71513;SDS011;59335;46.652;21.272;2023-03-01T20:02:56;10.47;;;4.90;;
71513;SDS011;59335;46.652;21.272;2023-03-01T20:06:06;8.65;;;4.55;;
71513;SDS011;59335;46.652;21.272;2023-03-01T20:09:13;11.50;;;5.75;;
71513;SDS011;59335;46.652;21.272;2023-03-01T20:12:24;9.65;;;4.97;;
71513;SDS011;59335;46.652;21.272;2023-03-01T20:15:27;8.55;;;4.90;;
71513;SDS011;59335;46.652;21.272;2023-03-01T20:18:32;10.27;;;5.33;;
71513;SDS011;59335;46.652;21.272;2023-03-01T20:21:37;9.85;;;4.82;;
71513;SDS011;59335;46.652;21.272;2023-03-01T20:24:41;11.75;;;5.70;;
71513;SDS011;59335;46.652;21.272;2023-03-01T20:27:44;10.32;;;4.85;;
71513;SDS011;59335;46.652;21.272;2023-03-01T20:30:49;9.65;;;5.20;;
71513;SDS011;59335;46.652;21.272;2023-03-01T20:33:54;10.40;;;5.27;;
71513;SDS011;59335;46.652;21.272;2023-03-01T20:36:59;9.70;;;4.80;;
71513;SDS011;59335;46.652;21.272;2023-03-01T20:40:03;9.80;;;5.75;;
71513;SDS011;59335;46.652;21.272;2023-03-01T20:43:08;10.77;;;5.03;;
71513;SDS011;59335;46.652;21.272;2023-03-01T20:46:11;11.07;;;5.22;;
71513;SDS011;59335;46.652;21.272;2023-03-01T20:49:16;8.77;;;5.47;;
71513;SDS011;59335;46.652;21.272;2023-03-01T20:52:20;9.52;;;5.30;;
71513;SDS011;59335;46.652;21.272;2023-03-01T20:55:24;8.77;;;4.97;;
71513;SDS011;59335;46.652;21.272;2023-03-01T20:58:27;10.02;;;5.28;;
71513;SDS011;59335;46.652;21.272;2023-03-01T21:01:35;9.65;;;5.32;;
71513;SDS011;59335;46.652;21.272;2023-03-01T21:04:39;10.30;;;5.13;;
71513;SDS011;59335;46.652;21.272;2023-03-01T21:07:42;8.80;;;5.00;;
71513;SDS011;59335;46.652;21.272;2023-03-01T21:10:52;10.82;;;5.38;;
71513;SDS011;59335;46.652;21.272;2023-03-01T21:13:56;10.93;;;5.15;;
71513;SDS011;59335;46.652;21.272;2023-03-01T21:17:00;10.57;;;5.10;;
71513;SDS011;59335;46.652;21.272;2023-03-01T21:20:04;10.43;;;5.03;;
71513;SDS011;59335;46.652;21.272;2023-03-01T21:23:08;8.68;;;5.15;;
71513;SDS011;59335;46.652;21.272;2023-03-01T21:26:13;8.55;;;4.60;;
71513;SDS011;59335;46.652;21.272;2023-03-01T21:29:19;9.20;;;5.35;;